Lyon Satolas, France

12:52 CEST le 03 septembre 2015 (GMT +0200)
Saint Exupery | | Change Station
CLOSE
Current Station
Aéroport
Location: Lyon Satolas,
Altitude: 787 ft
Stations météo à proximité

Alt. 787 ft 45.73 °N, 5.08 °E | Updated 22 minutes ago

Clear
Ciel dégagé
63 ° F
Paraît 63 ° F
N
2
Vent Variable Vent de Variable

Aujourd'hui
Haut(e) -- | Bas -- ° F
--% Risque de précip.
Hier
Haut(e) -- | Bas -- ° F
Precip. -- pouce
7:02 AM 8:14 PM
Lune gibbeuse décroissante, 71% visible
Pression 30.01 pouce
Visibilité -9999.0 Miles terrestres
Nuages
Point de rosée 52 ° F
Humidité 68%
Précipitations 0.00 pouce
Profondeur de la couche neigeuse Non disponible.
UV Non disponible.
Pollen Non disponible.
Qualité de l'air Non disponible.
Flu Activity Non disponible.
METAR LFLL 031030Z VRB02KT CAVOK 17/11 Q1016 NOSIG
Pression 30.01 pouce
Visibilité -9999.0 Miles terrestres
Nuages
Point de rosée 52 ° F
Humidité 68%
Précipitations 0.00 pouce
Profondeur de la couche neigeuse Non disponible.
UV Non disponible.
Pollen Non disponible.
Qualité de l'air Non disponible.
Flu Activity Non disponible.
METAR LFLL 031030Z VRB02KT CAVOK 17/11 Q1016 NOSIG

10-Day Weather Forecast

×

Almanac

Astronomie

Sep. 03, 2015 Lever Coucher
Temps réel
Crépuscule civil
Crépuscule nautique
Crépuscule astronomique
Lune
Durée de lumière visible
Longueur du jour
Tomorrow will be .
, % of the Moon is Illuminated

Extrêmes aujourd'hui

Country Highs Country Lows

Community

WunderPhotos

Upload Photos

1,851,933 Photos téléchargées !

WunderBlogs® & News

Nearby

Qualité de l'air

  Qualité de l'air Indice de la qualité de l'air Polluant
Not available.

Épaisseur de neige

Station Depth Altitude

Activité sismique

Ville Distance Mag. Time & Date
Minimum magnitude displayed is 2.5.

Températures des eaux côtières

Lieu Température

Stations

Stations météo à proximité

Emplacement de la station Température Refroidissement éolien Point de rosée Humidité Vent Precip. Alt. Mise à jour Type